createdAt,value
2023-02-14T00:00:09.126Z,100.00
2023-02-14T00:02:17.195Z,100.00
2023-02-14T00:04:25.077Z,100.00
2023-02-14T00:06:35.674Z,100.00
2023-02-14T00:08:47.076Z,100.00
2023-02-14T00:10:55.079Z,100.00
2023-02-14T00:13:02.917Z,100.00
2023-02-14T00:15:25.609Z,100.00
2023-02-14T00:17:33.622Z,100.00
2023-02-14T00:19:41.710Z,100.00
2023-02-14T00:21:50.210Z,100.00
2023-02-14T00:24:01.065Z,100.00
2023-02-14T00:26:09.170Z,100.00
2023-02-14T00:28:17.851Z,100.00
2023-02-14T00:30:26.053Z,100.00
2023-02-14T00:32:34.454Z,100.00
2023-02-14T00:34:46.985Z,100.00
2023-02-14T00:36:55.252Z,100.00
2023-02-14T00:39:07.100Z,100.00
2023-02-14T00:41:19.403Z,100.00
2023-02-14T00:43:27.796Z,100.00
2023-02-14T00:45:35.838Z,100.00
2023-02-14T00:47:43.961Z,100.00
2023-02-14T00:49:52.715Z,100.00
2023-02-14T00:52:00.720Z,100.00
2023-02-14T00:54:11.414Z,100.00
2023-02-14T00:56:20.190Z,100.00
2023-02-14T00:58:28.401Z,100.00
2023-02-14T01:00:36.858Z,100.00
2023-02-14T01:02:44.946Z,100.00
2023-02-14T01:04:52.868Z,100.00
2023-02-14T01:07:02.012Z,100.00
2023-02-14T01:09:12.704Z,100.00
2023-02-14T01:11:23.067Z,100.00
2023-02-14T01:13:30.880Z,100.00
2023-02-14T01:15:42.566Z,100.00
2023-02-14T01:17:50.642Z,100.00
2023-02-14T01:19:58.765Z,100.00
2023-02-14T01:22:06.756Z,100.00
2023-02-14T01:24:18.122Z,100.00
2023-02-14T01:26:27.666Z,100.00
2023-02-14T01:28:35.686Z,100.00
2023-02-14T01:30:45.936Z,100.00
2023-02-14T01:32:53.932Z,100.00
2023-02-14T01:35:02.037Z,100.00
2023-02-14T01:37:10.332Z,100.00
2023-02-14T01:39:22.265Z,100.00
2023-02-14T01:41:32.767Z,100.00
2023-02-14T01:44:03.568Z,100.00
2023-02-14T01:46:12.784Z,100.00
2023-02-14T01:48:24.057Z,100.00
2023-02-14T01:50:40.023Z,100.00
2023-02-14T01:52:52.530Z,100.00
2023-02-14T01:55:09.044Z,100.00
2023-02-14T01:57:20.832Z,100.00
2023-02-14T01:59:33.658Z,100.00
2023-02-14T02:01:43.120Z,100.00
2023-02-14T02:03:54.980Z,100.00
2023-02-14T02:06:08.804Z,100.00
2023-02-14T02:08:17.396Z,100.00
2023-02-14T02:10:30.761Z,100.00
2023-02-14T02:12:39.153Z,100.00
2023-02-14T02:14:48.876Z,100.00
2023-02-14T02:17:13.708Z,100.00
2023-02-14T02:20:05.733Z,100.00
2023-02-14T02:22:40.353Z,100.00
2023-02-14T02:24:57.545Z,100.00
2023-02-14T02:27:34.372Z,100.00
2023-02-14T02:30:12.406Z,100.00
2023-02-14T02:32:50.379Z,100.00
2023-02-14T02:35:18.562Z,100.00
2023-02-14T02:37:39.065Z,100.00
2023-02-14T02:40:06.075Z,100.00
2023-02-14T02:42:24.495Z,100.00
2023-02-14T02:44:44.155Z,100.00
2023-02-14T02:47:04.284Z,100.00
2023-02-14T02:49:40.548Z,100.00
2023-02-14T02:52:13.965Z,100.00
2023-02-14T02:54:30.792Z,100.00
2023-02-14T02:56:49.954Z,100.00
2023-02-14T02:59:01.950Z,100.00
2023-02-14T03:01:14.962Z,100.00
2023-02-14T03:03:38.614Z,100.00
2023-02-14T03:05:47.001Z,100.00
2023-02-14T03:07:57.565Z,100.00
2023-02-14T03:10:12.473Z,100.00
2023-02-14T03:12:38.469Z,100.00
2023-02-14T03:14:53.116Z,100.00
2023-02-14T03:17:08.486Z,100.00
2023-02-14T03:19:57.178Z,100.00
2023-02-14T03:22:15.346Z,100.00
2023-02-14T03:24:45.383Z,100.00
2023-02-14T03:27:00.270Z,100.00
2023-02-14T03:29:16.379Z,100.00
2023-02-14T03:31:31.554Z,100.00
2023-02-14T03:33:49.673Z,100.00
2023-02-14T03:36:03.173Z,100.00
2023-02-14T03:38:15.623Z,100.00
2023-02-14T03:40:31.662Z,100.00
2023-02-14T03:42:45.184Z,100.00
2023-02-14T03:44:56.817Z,100.00
2023-02-14T03:47:10.586Z,100.00
2023-02-14T03:49:24.838Z,100.00
2023-02-14T03:51:34.921Z,100.00
2023-02-14T03:53:47.492Z,100.00
2023-02-14T03:56:05.529Z,100.00
2023-02-14T03:58:19.833Z,100.00
2023-02-14T04:00:28.345Z,100.00
2023-02-14T04:02:40.839Z,100.00
2023-02-14T04:04:51.363Z,100.00
2023-02-14T04:06:59.192Z,100.00
2023-02-14T04:09:07.357Z,100.00
2023-02-14T04:11:18.087Z,100.00
2023-02-14T04:13:26.018Z,100.00
2023-02-14T04:15:33.883Z,100.00
2023-02-14T04:17:54.332Z,100.00
2023-02-14T04:20:02.156Z,100.00
2023-02-14T04:22:10.221Z,100.00
2023-02-14T04:24:18.243Z,100.00
2023-02-14T04:26:28.604Z,100.00
2023-02-14T04:28:36.936Z,100.00
2023-02-14T04:30:44.944Z,100.00
2023-02-14T04:32:53.189Z,100.00
2023-02-14T04:35:01.041Z,100.00
2023-02-14T04:37:09.714Z,100.00
2023-02-14T04:39:17.709Z,100.00
2023-02-14T04:41:28.298Z,100.00
2023-02-14T04:43:36.131Z,100.00
2023-02-14T04:45:44.194Z,100.00
2023-02-14T04:47:52.245Z,100.00
2023-02-14T04:50:00.543Z,100.00
2023-02-14T04:52:09.564Z,100.00
2023-02-14T04:54:17.515Z,100.00
2023-02-14T04:56:28.707Z,100.00
2023-02-14T04:58:39.047Z,100.00
2023-02-14T05:00:47.073Z,100.00
2023-02-14T05:02:54.897Z,100.00
2023-02-14T05:05:02.763Z,100.00
2023-02-14T05:07:10.843Z,100.00
2023-02-14T05:09:19.432Z,100.00
2023-02-14T05:11:30.588Z,100.00
2023-02-14T05:13:38.486Z,100.00
2023-02-14T05:15:47.768Z,100.00
2023-02-14T05:17:55.680Z,100.00
2023-02-14T05:20:03.670Z,100.00
2023-02-14T05:22:11.504Z,100.00
2023-02-14T05:24:19.751Z,100.00
2023-02-14T05:26:30.726Z,100.00
2023-02-14T05:28:41.098Z,100.00
2023-02-14T05:30:49.239Z,100.00
2023-02-14T05:32:57.981Z,100.00
2023-02-14T05:35:06.318Z,100.00
2023-02-14T05:37:16.186Z,100.00
2023-02-14T05:39:24.167Z,100.00
2023-02-14T05:41:46.635Z,100.00
2023-02-14T05:43:57.916Z,100.00
2023-02-14T05:46:05.904Z,100.00
2023-02-14T05:48:13.861Z,100.00
2023-02-14T05:50:22.383Z,100.00
2023-02-14T05:52:33.650Z,100.00
2023-02-14T05:54:41.443Z,100.00
2023-02-14T05:56:51.883Z,100.00
2023-02-14T05:58:59.776Z,100.00
2023-02-14T06:01:08.220Z,100.00
2023-02-14T06:03:16.041Z,100.00
2023-02-14T06:05:24.013Z,100.00
2023-02-14T06:07:32.025Z,100.00
2023-02-14T06:09:40.022Z,100.00
2023-02-14T06:11:47.789Z,100.00
2023-02-14T06:13:58.238Z,100.00
2023-02-14T06:16:06.738Z,100.00
2023-02-14T06:18:14.788Z,100.00
2023-02-14T06:20:24.312Z,100.00
2023-02-14T06:22:32.143Z,100.00
2023-02-14T06:24:40.188Z,100.00
2023-02-14T06:26:48.162Z,100.00
2023-02-14T06:29:00.283Z,100.00
2023-02-14T06:31:08.604Z,100.00
2023-02-14T06:33:16.449Z,100.00
2023-02-14T06:35:24.248Z,100.00
2023-02-14T06:37:32.107Z,100.00
2023-02-14T06:39:39.902Z,100.00
2023-02-14T06:41:48.044Z,100.00
2023-02-14T06:43:58.655Z,100.00
2023-02-14T06:46:07.398Z,100.00
2023-02-14T06:48:15.187Z,100.00
2023-02-14T06:50:23.061Z,100.00
2023-02-14T06:52:30.816Z,100.00
2023-02-14T06:54:38.859Z,100.00
2023-02-14T06:56:46.927Z,100.00
2023-02-14T06:58:54.823Z,100.00
2023-02-14T07:01:05.339Z,100.00
2023-02-14T07:03:13.880Z,100.00
2023-02-14T07:05:22.091Z,100.00
2023-02-14T07:07:30.007Z,100.00
2023-02-14T07:09:37.857Z,100.00
2023-02-14T07:11:46.295Z,100.00
2023-02-14T07:13:54.242Z,100.00
2023-02-14T07:16:02.223Z,100.00
2023-02-14T07:18:12.847Z,100.00
2023-02-14T07:20:21.212Z,100.00
2023-02-14T07:22:30.366Z,100.00
2023-02-14T07:24:38.404Z,100.00
2023-02-14T07:26:46.203Z,100.00
2023-02-14T07:28:57.396Z,100.00
2023-02-14T07:31:06.046Z,100.00
2023-02-14T07:33:16.889Z,100.00
2023-02-14T07:35:24.668Z,100.00
2023-02-14T07:37:32.515Z,100.00
2023-02-14T07:39:40.432Z,100.00
2023-02-14T07:41:48.179Z,100.00
2023-02-14T07:44:01.696Z,100.00
2023-02-14T07:46:09.833Z,100.00
2023-02-14T07:48:20.280Z,100.00
2023-02-14T07:50:28.587Z,100.00
2023-02-14T07:52:39.037Z,100.00
2023-02-14T07:54:47.210Z,100.00
2023-02-14T07:56:55.338Z,100.00
2023-02-14T07:59:03.420Z,100.00
2023-02-14T08:01:12.730Z,100.00
2023-02-14T08:03:23.133Z,100.00
2023-02-14T08:05:31.200Z,100.00
2023-02-14T08:07:39.490Z,100.00
2023-02-14T08:09:47.364Z,100.00
2023-02-14T08:12:08.387Z,100.00
2023-02-14T08:14:16.542Z,100.00
2023-02-14T08:16:24.475Z,100.00
2023-02-14T08:18:36.822Z,100.00
2023-02-14T08:20:44.908Z,100.00
2023-02-14T08:22:53.805Z,100.00
2023-02-14T08:25:01.860Z,100.00
2023-02-14T08:27:09.832Z,100.00
2023-02-14T08:29:17.699Z,100.00
2023-02-14T08:31:35.082Z,100.00
2023-02-14T08:33:46.674Z,100.00
2023-02-14T08:35:54.984Z,100.00
2023-02-14T08:38:05.764Z,100.00
2023-02-14T08:40:14.463Z,100.00
2023-02-14T08:42:22.499Z,100.00
2023-02-14T08:44:30.762Z,100.00
2023-02-14T08:46:39.057Z,100.00
2023-02-14T08:48:50.101Z,100.00
2023-02-14T08:50:58.075Z,100.00
2023-02-14T08:53:11.296Z,100.00
2023-02-14T08:55:19.267Z,100.00
2023-02-14T08:57:27.880Z,100.00
2023-02-14T08:59:35.705Z,100.00
2023-02-14T09:01:43.864Z,100.00
2023-02-14T09:03:54.426Z,100.00
2023-02-14T09:06:08.454Z,100.00
2023-02-14T09:08:16.666Z,100.00
2023-02-14T09:10:24.983Z,100.00
2023-02-14T09:12:32.860Z,100.00
2023-02-14T09:14:41.782Z,100.00
2023-02-14T09:16:50.015Z,100.00
2023-02-14T09:19:00.938Z,100.00
2023-02-14T09:21:10.774Z,100.00
2023-02-14T09:23:18.942Z,100.00
2023-02-14T09:25:27.094Z,100.00
2023-02-14T09:27:35.326Z,100.00
2023-02-14T09:29:43.413Z,100.00
2023-02-14T09:31:51.431Z,100.00
2023-02-14T09:34:14.353Z,93.97
2023-02-14T09:36:22.373Z,82.92
2023-02-14T09:38:27.599Z,79.88
2023-02-14T09:40:36.615Z,73.69
2023-02-14T09:43:02.561Z,64.81
2023-02-14T09:45:14.796Z,58.56
2023-02-14T09:47:31.418Z,54.66
2023-02-14T09:49:42.563Z,56.29
2023-02-14T09:51:55.545Z,54.96
2023-02-14T09:54:06.784Z,52.31
2023-02-14T09:56:22.368Z,49.27
2023-02-14T09:58:36.434Z,47.58
2023-02-14T10:00:50.223Z,44.84
2023-02-14T10:03:06.069Z,46.35
2023-02-14T10:05:23.165Z,47.00
2023-02-14T10:07:39.983Z,47.48
2023-02-14T10:10:00.985Z,48.58
2023-02-14T10:12:17.511Z,44.50
2023-02-14T10:14:29.861Z,45.59
2023-02-14T10:16:53.996Z,47.78
2023-02-14T10:19:09.752Z,49.97
2023-02-14T10:21:27.261Z,48.48
2023-02-14T10:23:37.947Z,52.34
2023-02-14T10:25:51.867Z,51.42
2023-02-14T10:28:04.692Z,51.41
2023-02-14T10:30:16.443Z,52.13
2023-02-14T10:32:31.162Z,51.46
2023-02-14T10:34:46.645Z,49.97
2023-02-14T10:37:11.819Z,48.23
2023-02-14T10:39:46.393Z,46.22
2023-02-14T10:41:58.908Z,47.04
2023-02-14T10:44:23.582Z,47.79
2023-02-14T10:46:39.754Z,47.01
2023-02-14T10:48:58.418Z,49.53
2023-02-14T10:51:15.629Z,48.85
2023-02-14T10:53:34.964Z,49.15
2023-02-14T10:55:50.483Z,51.36
2023-02-14T10:57:59.978Z,52.82
2023-02-14T11:00:19.890Z,50.95
2023-02-14T11:02:33.203Z,48.76
2023-02-14T11:04:42.321Z,47.00
2023-02-14T11:06:51.558Z,48.47
2023-02-14T11:09:02.320Z,50.46
2023-02-14T11:11:20.379Z,58.37
2023-02-14T11:13:34.996Z,61.57
2023-02-14T11:15:43.215Z,61.89
2023-02-14T11:17:52.047Z,64.87
2023-02-14T11:20:02.611Z,69.30
2023-02-14T11:22:10.494Z,73.89
2023-02-14T11:24:31.633Z,76.62
2023-02-14T11:26:40.039Z,76.50
2023-02-14T11:28:56.878Z,77.60
2023-02-14T11:31:05.454Z,77.06
2023-02-14T11:33:16.112Z,78.43
2023-02-14T11:35:27.792Z,78.27
2023-02-14T11:37:42.547Z,78.37
2023-02-14T11:39:55.078Z,77.87
2023-02-14T11:42:04.594Z,78.70
2023-02-14T11:44:22.601Z,79.02
2023-02-14T11:46:36.133Z,77.88
2023-02-14T11:49:01.653Z,77.82
2023-02-14T11:51:14.063Z,74.33
2023-02-14T11:53:26.476Z,74.85
2023-02-14T11:55:37.526Z,73.96
2023-02-14T11:57:45.964Z,74.35
2023-02-14T11:59:56.772Z,74.03
2023-02-14T12:02:15.775Z,75.19
2023-02-14T12:04:30.848Z,73.30
2023-02-14T12:06:39.853Z,72.31
2023-02-14T12:08:48.171Z,71.37
2023-02-14T12:11:08.275Z,71.55
2023-02-14T12:13:27.572Z,72.35
2023-02-14T12:15:40.748Z,73.19
2023-02-14T12:17:52.527Z,71.63
2023-02-14T12:20:06.773Z,71.66
2023-02-14T12:22:19.584Z,71.48
2023-02-14T12:24:35.472Z,72.42
2023-02-14T12:26:49.866Z,72.91
2023-02-14T12:29:06.128Z,72.99
2023-02-14T12:31:15.047Z,71.92
2023-02-14T12:33:26.144Z,71.54
2023-02-14T12:35:47.687Z,70.71
2023-02-14T12:38:05.879Z,71.48
2023-02-14T12:40:24.922Z,71.26
2023-02-14T12:42:52.092Z,71.00
2023-02-14T12:45:07.525Z,68.75
2023-02-14T12:47:22.926Z,68.96
2023-02-14T12:49:58.984Z,68.40
2023-02-14T12:52:30.883Z,66.14
2023-02-14T12:54:52.369Z,67.52
2023-02-14T12:57:07.763Z,67.40
2023-02-14T12:59:29.596Z,67.63
2023-02-14T13:02:23.001Z,66.14
2023-02-14T13:05:02.003Z,64.08
2023-02-14T13:07:20.630Z,66.47
2023-02-14T13:09:38.691Z,66.16
2023-02-14T13:12:02.340Z,65.13
2023-02-14T13:14:29.692Z,64.70
2023-02-14T13:16:47.855Z,63.42
2023-02-14T13:19:02.313Z,63.75
2023-02-14T13:21:15.263Z,63.83
2023-02-14T13:23:30.594Z,63.70
2023-02-14T13:25:42.941Z,63.25
2023-02-14T13:27:51.326Z,62.52
2023-02-14T13:30:06.505Z,62.16
2023-02-14T13:32:18.463Z,62.72
2023-02-14T13:34:33.072Z,61.37
2023-02-14T13:36:41.137Z,61.83
2023-02-14T13:38:52.060Z,61.52
2023-02-14T13:41:01.989Z,62.76
2023-02-14T13:43:10.208Z,62.81
2023-02-14T13:45:48.147Z,62.00
2023-02-14T13:48:06.202Z,61.91
2023-02-14T13:50:23.616Z,62.82
2023-02-14T13:52:45.379Z,62.78
2023-02-14T13:54:53.272Z,62.70
2023-02-14T13:57:02.822Z,63.02
2023-02-14T13:59:29.281Z,62.58
2023-02-14T14:01:40.820Z,62.86
2023-02-14T14:04:39.375Z,63.64
2023-02-14T14:07:22.333Z,64.20
2023-02-14T14:09:58.598Z,64.24
2023-02-14T14:12:06.772Z,64.47
2023-02-14T14:14:36.485Z,64.39
2023-02-14T14:16:59.122Z,64.60
2023-02-14T14:19:42.609Z,65.48
2023-02-14T14:22:04.825Z,65.78
2023-02-14T14:24:25.008Z,66.30
2023-02-14T14:26:40.947Z,66.68
2023-02-14T14:28:49.430Z,67.10
2023-02-14T14:30:57.965Z,67.43
2023-02-14T14:33:17.216Z,68.13
2023-02-14T14:35:29.089Z,68.52
2023-02-14T14:37:39.205Z,68.68
2023-02-14T14:39:53.936Z,69.16
2023-02-14T14:42:09.927Z,69.30
2023-02-14T14:44:18.683Z,69.68
2023-02-14T14:46:26.835Z,70.26
2023-02-14T14:48:40.426Z,70.68
2023-02-14T14:50:52.118Z,71.65
2023-02-14T14:53:03.038Z,72.01
2023-02-14T14:55:19.181Z,71.51
2023-02-14T14:57:27.540Z,72.06
2023-02-14T14:59:38.333Z,72.52
2023-02-14T15:01:48.127Z,73.15
2023-02-14T15:03:56.034Z,72.97
2023-02-14T15:06:18.047Z,73.28
2023-02-14T15:08:35.397Z,73.72
2023-02-14T15:10:43.590Z,74.85
2023-02-14T15:13:05.717Z,75.42
2023-02-14T15:15:15.732Z,76.17
2023-02-14T15:17:27.962Z,76.42
2023-02-14T15:19:41.886Z,77.25
2023-02-14T15:21:53.383Z,77.88
2023-02-14T15:24:01.581Z,78.67
2023-02-14T15:26:10.298Z,79.03
2023-02-14T15:28:30.037Z,79.41
2023-02-14T15:30:39.954Z,79.74
2023-02-14T15:32:49.664Z,80.17
2023-02-14T15:34:58.475Z,81.12
2023-02-14T15:37:11.049Z,81.57
2023-02-14T15:39:19.944Z,82.19
2023-02-14T15:41:28.520Z,83.06
2023-02-14T15:43:40.205Z,83.39
2023-02-14T15:45:51.334Z,84.57
2023-02-14T15:48:02.341Z,85.34
2023-02-14T15:50:17.237Z,85.68
2023-02-14T15:52:27.812Z,87.00
2023-02-14T15:54:40.619Z,87.67
2023-02-14T15:56:51.878Z,88.42
2023-02-14T15:59:07.030Z,89.23
2023-02-14T16:01:15.508Z,89.99
2023-02-14T16:03:26.610Z,90.90
2023-02-14T16:05:34.803Z,91.58
2023-02-14T16:07:58.923Z,92.30
2023-02-14T16:10:26.971Z,92.40
2023-02-14T16:12:38.350Z,93.11
2023-02-14T16:14:46.736Z,94.06
2023-02-14T16:17:02.641Z,94.43
2023-02-14T16:19:34.246Z,95.38
2023-02-14T16:21:42.407Z,96.22
2023-02-14T16:24:14.048Z,96.81
2023-02-14T16:26:21.968Z,98.35
2023-02-14T16:28:32.857Z,99.72
2023-02-14T16:30:43.191Z,100.00
2023-02-14T16:32:55.985Z,100.00
2023-02-14T16:35:04.102Z,100.00
2023-02-14T16:37:21.969Z,100.00
2023-02-14T16:39:36.559Z,100.00
2023-02-14T16:41:47.480Z,100.00
2023-02-14T16:43:56.117Z,100.00
2023-02-14T16:46:04.381Z,100.00
2023-02-14T16:48:12.997Z,100.00
2023-02-14T16:50:22.861Z,100.00
2023-02-14T16:52:33.043Z,100.00
2023-02-14T16:54:43.550Z,100.00
2023-02-14T16:56:56.007Z,100.00
2023-02-14T16:59:04.611Z,100.00
2023-02-14T17:01:12.903Z,100.00
2023-02-14T17:03:20.706Z,100.00
2023-02-14T17:05:29.268Z,100.00
2023-02-14T17:07:37.292Z,100.00
2023-02-14T17:09:54.656Z,100.00
2023-02-14T17:12:06.592Z,100.00
2023-02-14T17:14:16.871Z,100.00
2023-02-14T17:16:25.278Z,100.00
2023-02-14T17:18:35.158Z,100.00
2023-02-14T17:20:43.862Z,100.00
2023-02-14T17:22:52.023Z,100.00
2023-02-14T17:25:02.688Z,100.00
2023-02-14T17:27:11.569Z,100.00
2023-02-14T17:29:19.804Z,100.00
2023-02-14T17:31:28.914Z,100.00
2023-02-14T17:33:37.661Z,100.00
2023-02-14T17:35:45.662Z,100.00
2023-02-14T17:37:53.653Z,100.00
2023-02-14T17:40:04.356Z,100.00
2023-02-14T17:42:12.511Z,100.00
2023-02-14T17:44:21.068Z,100.00
2023-02-14T17:46:31.744Z,100.00
2023-02-14T17:48:39.699Z,100.00
2023-02-14T17:50:48.017Z,100.00
2023-02-14T17:52:57.364Z,100.00
2023-02-14T17:55:09.156Z,100.00
2023-02-14T17:57:17.038Z,100.00
2023-02-14T17:59:24.902Z,100.00
2023-02-14T18:01:36.364Z,100.00
2023-02-14T18:03:44.775Z,100.00
2023-02-14T18:05:52.626Z,100.00
2023-02-14T18:08:00.616Z,100.00
2023-02-14T18:10:13.420Z,100.00
2023-02-14T18:12:21.560Z,100.00
2023-02-14T18:14:30.764Z,100.00
2023-02-14T18:16:40.827Z,100.00
2023-02-14T18:18:49.791Z,100.00
2023-02-14T18:20:58.349Z,100.00
2023-02-14T18:23:07.623Z,100.00
2023-02-14T18:25:18.470Z,100.00
2023-02-14T18:27:26.334Z,100.00
2023-02-14T18:29:35.065Z,100.00
2023-02-14T18:31:45.381Z,100.00
2023-02-14T18:33:53.990Z,100.00
2023-02-14T18:36:04.900Z,100.00
2023-02-14T18:38:13.410Z,100.00
2023-02-14T18:40:24.234Z,100.00
2023-02-14T18:42:32.204Z,100.00
2023-02-14T18:44:40.207Z,100.00
2023-02-14T18:46:49.805Z,100.00
2023-02-14T18:49:00.004Z,100.00
2023-02-14T18:51:08.994Z,100.00
2023-02-14T18:53:16.944Z,100.00
2023-02-14T18:55:28.923Z,100.00
2023-02-14T18:57:37.686Z,100.00
2023-02-14T18:59:45.594Z,100.00
2023-02-14T19:01:53.652Z,100.00
2023-02-14T19:04:03.588Z,100.00
2023-02-14T19:06:13.238Z,100.00
2023-02-14T19:08:21.299Z,100.00
2023-02-14T19:10:32.209Z,100.00
2023-02-14T19:12:40.172Z,100.00
2023-02-14T19:14:48.659Z,100.00
2023-02-14T19:16:56.592Z,100.00
2023-02-14T19:19:04.853Z,100.00
2023-02-14T19:21:14.430Z,100.00
2023-02-14T19:23:22.346Z,100.00
2023-02-14T19:25:34.640Z,100.00
2023-02-14T19:27:43.150Z,100.00
2023-02-14T19:29:51.822Z,100.00
2023-02-14T19:32:00.255Z,100.00
2023-02-14T19:34:09.800Z,100.00
2023-02-14T19:36:20.234Z,100.00
2023-02-14T19:38:28.050Z,100.00
2023-02-14T19:40:38.735Z,100.00
2023-02-14T19:42:46.815Z,100.00
2023-02-14T19:44:54.996Z,100.00
2023-02-14T19:47:19.235Z,100.00
2023-02-14T19:49:32.572Z,100.00
2023-02-14T19:51:40.520Z,100.00
2023-02-14T19:53:48.866Z,100.00
2023-02-14T19:55:59.419Z,100.00
2023-02-14T19:58:07.624Z,100.00
2023-02-14T20:00:17.664Z,100.00
2023-02-14T20:02:25.853Z,100.00
2023-02-14T20:04:34.070Z,100.00
2023-02-14T20:06:42.703Z,100.00
2023-02-14T20:08:51.291Z,100.00
2023-02-14T20:11:02.156Z,100.00
2023-02-14T20:13:10.266Z,100.00
2023-02-14T20:15:18.484Z,100.00
2023-02-14T20:17:26.477Z,100.00
2023-02-14T20:19:38.916Z,100.00
2023-02-14T20:21:48.513Z,100.00
2023-02-14T20:23:57.613Z,100.00
2023-02-14T20:26:13.660Z,100.00
2023-02-14T20:28:21.599Z,100.00
2023-02-14T20:30:29.786Z,100.00
2023-02-14T20:32:38.284Z,100.00
2023-02-14T20:34:46.246Z,100.00
2023-02-14T20:37:11.261Z,100.00
2023-02-14T20:39:19.579Z,100.00
2023-02-14T20:41:34.470Z,100.00
2023-02-14T20:43:42.843Z,100.00
2023-02-14T20:45:51.133Z,100.00
2023-02-14T20:48:03.382Z,100.00
2023-02-14T20:50:12.555Z,100.00
2023-02-14T20:52:21.492Z,100.00
2023-02-14T20:54:30.863Z,100.00
2023-02-14T20:56:42.032Z,100.00
2023-02-14T20:58:50.140Z,100.00
2023-02-14T21:00:58.290Z,100.00
2023-02-14T21:03:06.669Z,100.00
2023-02-14T21:05:18.545Z,100.00
2023-02-14T21:07:31.070Z,100.00
2023-02-14T21:09:40.033Z,100.00
2023-02-14T21:11:50.814Z,100.00
2023-02-14T21:14:00.210Z,100.00
2023-02-14T21:16:10.244Z,100.00
2023-02-14T21:18:18.404Z,100.00
2023-02-14T21:20:26.355Z,100.00
2023-02-14T21:22:37.118Z,100.00
2023-02-14T21:24:45.701Z,100.00
2023-02-14T21:26:56.272Z,100.00
2023-02-14T21:29:04.148Z,100.00
2023-02-14T21:31:14.461Z,100.00
2023-02-14T21:33:22.479Z,100.00
2023-02-14T21:35:30.696Z,100.00
2023-02-14T21:37:38.987Z,100.00
2023-02-14T21:39:46.942Z,100.00
2023-02-14T21:42:00.856Z,100.00
2023-02-14T21:44:10.609Z,100.00
2023-02-14T21:46:18.548Z,100.00
2023-02-14T21:48:39.025Z,100.00
2023-02-14T21:50:47.065Z,100.00
2023-02-14T21:52:55.125Z,100.00
2023-02-14T21:55:03.319Z,100.00
2023-02-14T21:57:14.474Z,100.00
2023-02-14T21:59:25.006Z,100.00
2023-02-14T22:01:35.182Z,100.00
2023-02-14T22:03:43.363Z,100.00
2023-02-14T22:05:51.187Z,100.00
2023-02-14T22:07:59.276Z,100.00
2023-02-14T22:10:09.613Z,100.00
2023-02-14T22:12:20.431Z,100.00
2023-02-14T22:14:29.339Z,100.00
2023-02-14T22:16:38.331Z,100.00
2023-02-14T22:18:47.450Z,100.00
2023-02-14T22:20:55.366Z,100.00
2023-02-14T22:23:03.560Z,100.00
2023-02-14T22:25:11.710Z,100.00
2023-02-14T22:27:22.386Z,100.00
2023-02-14T22:29:30.332Z,100.00
2023-02-14T22:31:41.059Z,100.00
2023-02-14T22:33:50.320Z,100.00
2023-02-14T22:35:59.276Z,100.00
2023-02-14T22:38:07.457Z,100.00
2023-02-14T22:40:15.932Z,100.00
2023-02-14T22:42:26.524Z,100.00
2023-02-14T22:44:34.617Z,100.00
2023-02-14T22:46:42.888Z,100.00
2023-02-14T22:48:52.669Z,100.00
2023-02-14T22:51:09.115Z,100.00
2023-02-14T22:53:20.044Z,100.00
2023-02-14T22:55:28.533Z,100.00
2023-02-14T22:57:38.940Z,100.00
2023-02-14T22:59:46.937Z,100.00
2023-02-14T23:01:56.352Z,100.00
2023-02-14T23:04:05.870Z,100.00
2023-02-14T23:06:14.709Z,100.00
2023-02-14T23:08:22.627Z,100.00
2023-02-14T23:10:30.581Z,100.00
2023-02-14T23:12:53.448Z,100.00
2023-02-14T23:15:13.968Z,100.00
2023-02-14T23:17:34.128Z,100.00
2023-02-14T23:19:54.443Z,100.00
2023-02-14T23:22:04.041Z,100.00
2023-02-14T23:24:11.865Z,100.00
2023-02-14T23:26:22.407Z,100.00
2023-02-14T23:28:33.334Z,100.00
2023-02-14T23:30:41.401Z,100.00
2023-02-14T23:32:49.747Z,100.00
2023-02-14T23:34:57.950Z,100.00
2023-02-14T23:37:09.182Z,100.00
2023-02-14T23:39:17.246Z,100.00
2023-02-14T23:41:37.468Z,100.00
2023-02-14T23:43:48.566Z,100.00
2023-02-14T23:45:58.913Z,100.00
2023-02-14T23:48:08.122Z,100.00
2023-02-14T23:50:16.161Z,100.00
2023-02-14T23:52:23.894Z,100.00
2023-02-14T23:54:32.064Z,100.00
2023-02-14T23:56:40.752Z,100.00
2023-02-14T23:58:51.734Z,100.00
